createdAt,value
2018-09-11T00:01:27.568Z,8.07
2018-09-11T00:03:56.064Z,9.27
2018-09-11T00:06:24.537Z,10.83
2018-09-11T00:08:53.032Z,12.80
2018-09-11T00:11:21.540Z,8.60
2018-09-11T00:13:50.055Z,12.07
2018-09-11T00:16:18.733Z,11.53
2018-09-11T00:18:47.336Z,12.33
2018-09-11T00:21:15.889Z,11.90
2018-09-11T00:23:45.467Z,7.83
2018-09-11T00:26:14.242Z,10.30
2018-09-11T00:28:42.751Z,9.03
2018-09-11T00:31:12.338Z,8.53
2018-09-11T00:33:40.840Z,7.97
2018-09-11T00:36:09.335Z,8.03
2018-09-11T00:38:38.898Z,8.53
2018-09-11T00:41:08.599Z,7.70
2018-09-11T00:43:37.109Z,9.17
2018-09-11T00:46:05.928Z,8.00
2018-09-11T00:48:35.483Z,11.13
2018-09-11T00:51:04.655Z,8.33
2018-09-11T00:53:33.160Z,8.43
2018-09-11T00:56:01.852Z,6.70
2018-09-11T00:58:31.602Z,5.60
2018-09-11T01:01:00.082Z,8.87
2018-09-11T01:03:29.629Z,7.93
2018-09-11T01:06:00.140Z,11.53
2018-09-11T01:08:28.626Z,6.77
2018-09-11T01:10:57.144Z,8.87
2018-09-11T01:13:25.645Z,8.70
2018-09-11T01:15:54.103Z,10.10
2018-09-11T01:18:22.584Z,5.53
2018-09-11T01:20:51.122Z,13.23
2018-09-11T01:23:19.617Z,7.63
2018-09-11T01:25:48.129Z,6.90
2018-09-11T01:28:18.673Z,6.17
2018-09-11T01:30:47.181Z,7.07
2018-09-11T01:33:15.692Z,7.33
2018-09-11T01:35:44.187Z,8.03
2018-09-11T01:38:12.683Z,8.53
2018-09-11T01:40:41.151Z,7.57
2018-09-11T01:43:09.613Z,8.67
2018-09-11T01:45:38.133Z,7.20
2018-09-11T01:48:06.680Z,6.47
2018-09-11T01:50:35.134Z,9.87
2018-09-11T01:53:03.630Z,5.43
2018-09-11T01:55:32.217Z,7.27
2018-09-11T01:58:00.726Z,6.03
2018-09-11T02:00:29.221Z,5.60
2018-09-11T02:02:57.691Z,9.60
2018-09-11T02:05:26.209Z,5.80
2018-09-11T02:07:54.661Z,6.80
2018-09-11T02:10:23.116Z,6.00
2018-09-11T02:12:51.651Z,6.03
2018-09-11T02:15:20.202Z,6.03
2018-09-11T02:17:48.723Z,5.77
2018-09-11T02:20:17.290Z,6.77
2018-09-11T02:22:45.779Z,8.10
2018-09-11T02:25:14.231Z,7.87
2018-09-11T02:27:42.710Z,8.60
2018-09-11T02:30:11.184Z,6.53
2018-09-11T02:32:39.700Z,9.43
2018-09-11T02:35:08.174Z,9.03
2018-09-11T02:37:36.664Z,8.43
2018-09-11T02:40:06.199Z,7.77
2018-09-11T02:42:34.718Z,12.07
2018-09-11T02:45:03.209Z,6.83
2018-09-11T02:47:33.172Z,9.10
2018-09-11T02:50:01.679Z,7.70
2018-09-11T02:52:30.192Z,7.97
2018-09-11T02:54:58.668Z,7.03
2018-09-11T02:57:27.197Z,8.33
2018-09-11T02:59:55.627Z,6.83
2018-09-11T03:02:25.144Z,7.43
2018-09-11T03:04:54.680Z,7.53
2018-09-11T03:07:23.188Z,8.60
2018-09-11T03:09:51.675Z,6.00
2018-09-11T03:12:20.288Z,7.40
2018-09-11T03:14:48.745Z,8.87
2018-09-11T03:17:17.196Z,6.47
2018-09-11T03:19:45.761Z,6.33
2018-09-11T03:22:15.273Z,5.83
2018-09-11T03:24:43.840Z,6.43
2018-09-11T03:27:12.335Z,12.33
2018-09-11T03:29:40.838Z,7.93
2018-09-11T03:32:09.563Z,10.13
2018-09-11T03:34:38.115Z,6.07
2018-09-11T03:37:07.750Z,7.00
2018-09-11T03:39:36.233Z,7.03
2018-09-11T03:42:04.752Z,7.53
2018-09-11T03:44:34.269Z,8.07
2018-09-11T03:47:02.725Z,11.17
2018-09-11T03:49:31.620Z,8.87
2018-09-11T03:52:00.071Z,8.30
2018-09-11T03:54:28.532Z,9.43
2018-09-11T03:56:57.033Z,9.17
2018-09-11T03:59:25.568Z,7.87
2018-09-11T04:01:53.971Z,10.23
2018-09-11T04:04:22.449Z,7.87
2018-09-11T04:06:51.040Z,8.17
2018-09-11T04:09:19.543Z,10.77
2018-09-11T04:11:47.999Z,8.13
2018-09-11T04:14:16.531Z,8.87
2018-09-11T04:16:44.983Z,9.93
2018-09-11T04:19:13.448Z,9.77
2018-09-11T04:21:41.942Z,10.10
2018-09-11T04:24:10.412Z,8.60
2018-09-11T04:26:38.939Z,10.53
2018-09-11T04:29:07.633Z,8.63
2018-09-11T04:31:36.166Z,11.37
2018-09-11T04:34:04.649Z,9.10
2018-09-11T04:36:33.239Z,11.13
2018-09-11T04:39:01.664Z,11.93
2018-09-11T04:41:30.204Z,8.30
2018-09-11T04:43:58.671Z,13.93
2018-09-11T04:46:27.140Z,12.47
2018-09-11T04:48:55.715Z,13.63
2018-09-11T04:51:24.251Z,14.60
2018-09-11T04:53:52.723Z,11.07
2018-09-11T04:56:21.211Z,12.23
2018-09-11T04:58:49.654Z,11.47
2018-09-11T05:01:18.166Z,11.03
2018-09-11T05:03:46.611Z,10.47
2018-09-11T05:06:15.097Z,11.20
2018-09-11T05:08:43.598Z,9.83
2018-09-11T05:11:12.056Z,8.53
2018-09-11T05:13:40.524Z,10.93
2018-09-11T05:16:08.995Z,10.10
2018-09-11T05:18:37.457Z,13.13
2018-09-11T05:21:05.929Z,12.57
2018-09-11T05:23:34.455Z,13.00
2018-09-11T05:26:02.936Z,13.20
2018-09-11T05:28:31.439Z,11.03
2018-09-11T05:31:00.068Z,12.70
2018-09-11T05:33:28.592Z,12.77
2018-09-11T05:35:57.094Z,11.83
2018-09-11T05:38:25.569Z,11.77
2018-09-11T05:40:54.134Z,14.20
2018-09-11T05:43:22.660Z,13.47
2018-09-11T05:45:51.106Z,14.17
2018-09-11T05:48:19.591Z,17.37
2018-09-11T05:50:48.114Z,13.00
2018-09-11T05:53:16.589Z,16.77
2018-09-11T05:55:45.060Z,24.70
2018-09-11T05:58:13.583Z,19.70
2018-09-11T06:00:42.016Z,19.90
2018-09-11T06:03:10.494Z,19.13
2018-09-11T06:05:39.011Z,27.17
2018-09-11T06:08:07.487Z,22.67
2018-09-11T06:10:35.982Z,17.90
2018-09-11T06:13:04.532Z,25.23
2018-09-11T06:15:32.992Z,27.50
2018-09-11T06:18:01.805Z,24.67
2018-09-11T06:20:30.298Z,17.60
2018-09-11T06:22:58.860Z,11.83
2018-09-11T06:25:27.336Z,18.20
2018-09-11T06:27:55.846Z,14.10
2018-09-11T06:30:24.324Z,21.57
2018-09-11T06:32:52.779Z,25.67
2018-09-11T06:35:21.352Z,18.33
2018-09-11T06:37:49.824Z,15.53
2018-09-11T06:40:18.312Z,16.10
2018-09-11T06:42:46.867Z,14.80
2018-09-11T06:45:15.469Z,14.43
2018-09-11T06:47:43.930Z,16.37
2018-09-11T06:50:12.454Z,11.60
2018-09-11T06:52:40.936Z,15.07
2018-09-11T06:55:09.400Z,15.20
2018-09-11T06:57:37.850Z,13.50
2018-09-11T07:00:06.355Z,15.97
2018-09-11T07:02:34.847Z,13.60
2018-09-11T07:05:03.349Z,8.90
2018-09-11T07:07:31.985Z,12.13
2018-09-11T07:10:00.446Z,11.40
2018-09-11T07:12:28.931Z,8.50
2018-09-11T07:14:57.404Z,10.87
2018-09-11T07:17:25.869Z,9.10
2018-09-11T07:19:54.422Z,22.67
2018-09-11T07:22:22.928Z,42.37
2018-09-11T07:24:51.451Z,34.93
2018-09-11T07:27:20.148Z,29.53
2018-09-11T07:29:49.003Z,17.13
2018-09-11T07:32:17.519Z,31.00
2018-09-11T07:34:45.973Z,19.17
2018-09-11T07:37:14.952Z,16.30
2018-09-11T07:39:43.400Z,18.70
2018-09-11T07:42:12.165Z,125.60
2018-09-11T07:44:40.839Z,58.33
2018-09-11T07:47:09.264Z,31.63
2018-09-11T07:49:37.919Z,37.40
2018-09-11T07:52:06.797Z,18.20
2018-09-11T07:54:35.407Z,17.10
2018-09-11T07:57:03.956Z,19.63
2018-09-11T07:59:32.615Z,20.90
2018-09-11T08:02:01.078Z,23.13
2018-09-11T08:04:29.554Z,13.80
2018-09-11T08:06:58.171Z,17.23
2018-09-11T08:09:26.702Z,17.10
2018-09-11T08:11:55.203Z,16.90
2018-09-11T08:14:23.648Z,13.50
2018-09-11T08:16:52.127Z,15.63
2018-09-11T08:19:20.641Z,11.67
2018-09-11T08:21:49.220Z,14.43
2018-09-11T08:24:17.706Z,19.77
2018-09-11T08:26:46.322Z,13.77
2018-09-11T08:29:14.995Z,15.00
2018-09-11T08:31:43.419Z,14.03
2018-09-11T08:34:11.872Z,13.33
2018-09-11T08:36:40.344Z,12.77
2018-09-11T08:39:09.977Z,13.93
2018-09-11T08:41:38.498Z,10.13
2018-09-11T08:44:06.963Z,15.37
2018-09-11T08:46:35.470Z,12.50
2018-09-11T08:49:03.928Z,11.57
2018-09-11T08:51:32.422Z,4.47
2018-09-11T08:54:00.990Z,5.33
2018-09-11T08:56:29.504Z,8.23
2018-09-11T08:58:57.994Z,6.47
2018-09-11T09:01:26.436Z,7.20
2018-09-11T09:03:54.920Z,9.53
2018-09-11T09:06:23.390Z,20.43
2018-09-11T09:08:51.972Z,15.93
2018-09-11T09:11:20.416Z,9.13
2018-09-11T09:13:48.882Z,10.63
2018-09-11T09:16:17.709Z,7.37
2018-09-11T09:18:46.164Z,46.60
2018-09-11T09:21:14.645Z,13.93
2018-09-11T09:23:43.131Z,8.60
2018-09-11T09:26:11.600Z,7.63
2018-09-11T09:28:40.251Z,14.10
2018-09-11T09:31:08.737Z,8.77
2018-09-11T09:33:37.240Z,12.67
2018-09-11T09:36:05.808Z,15.07
2018-09-11T09:38:34.365Z,9.37
2018-09-11T09:41:02.826Z,10.90
2018-09-11T09:43:31.345Z,10.27
2018-09-11T09:45:59.844Z,13.30
2018-09-11T09:48:28.328Z,4.90
2018-09-11T09:50:56.932Z,6.70
2018-09-11T09:53:25.321Z,7.03
2018-09-11T09:55:53.788Z,20.50
2018-09-11T09:58:22.261Z,7.03
2018-09-11T10:00:57.555Z,10.10
2018-09-11T10:03:26.044Z,12.80
2018-09-11T10:05:54.516Z,4.47
2018-09-11T10:08:22.997Z,6.77
2018-09-11T10:10:51.465Z,3.93
2018-09-11T10:13:19.925Z,5.20
2018-09-11T10:15:48.519Z,4.73
2018-09-11T10:18:16.968Z,7.13
2018-09-11T10:20:45.767Z,4.70
2018-09-11T10:23:14.236Z,6.13
2018-09-11T10:25:42.694Z,8.30
2018-09-11T10:28:11.196Z,6.77
2018-09-11T10:30:39.673Z,4.33
2018-09-11T10:33:08.143Z,6.47
2018-09-11T10:35:36.616Z,3.43
2018-09-11T10:38:05.102Z,4.37
2018-09-11T10:40:33.625Z,3.93
2018-09-11T10:43:02.227Z,28.17
2018-09-11T10:45:31.326Z,8.13
2018-09-11T10:47:59.826Z,8.77
2018-09-11T10:50:28.305Z,7.37
2018-09-11T10:52:56.766Z,4.30
2018-09-11T10:55:25.241Z,6.43
2018-09-11T10:57:53.717Z,6.33
2018-09-11T11:00:22.224Z,4.97
2018-09-11T11:02:50.694Z,8.27
2018-09-11T11:05:19.172Z,5.30
2018-09-11T11:07:47.625Z,8.37
2018-09-11T11:10:16.085Z,3.97
2018-09-11T11:12:44.618Z,3.33
2018-09-11T11:15:13.105Z,2.77
2018-09-11T11:17:41.568Z,32.23
2018-09-11T11:20:10.128Z,6.50
2018-09-11T11:22:39.239Z,8.03
2018-09-11T11:25:07.716Z,18.07
2018-09-11T11:27:36.269Z,9.03
2018-09-11T11:30:04.933Z,5.70
2018-09-11T11:32:33.377Z,7.63
2018-09-11T11:35:01.877Z,4.70
2018-09-11T11:37:30.423Z,3.47
2018-09-11T11:39:58.832Z,4.80
2018-09-11T11:42:27.338Z,5.37
2018-09-11T11:44:55.788Z,5.97
2018-09-11T11:47:24.260Z,5.30
2018-09-11T11:49:52.857Z,6.53
2018-09-11T11:52:21.302Z,6.73
2018-09-11T11:54:49.988Z,4.90
2018-09-11T11:57:18.655Z,7.97
2018-09-11T11:59:47.161Z,5.97
2018-09-11T12:02:15.623Z,4.90
2018-09-11T12:04:44.101Z,5.17
2018-09-11T12:07:13.243Z,14.57
2018-09-11T12:09:41.720Z,11.70
2018-09-11T12:12:10.185Z,5.03
2018-09-11T12:14:38.680Z,7.60
2018-09-11T12:17:07.404Z,6.77
2018-09-11T12:19:35.998Z,7.00
2018-09-11T12:22:04.498Z,5.37
2018-09-11T12:24:33.169Z,6.10
2018-09-11T12:27:01.964Z,4.77
2018-09-11T12:29:30.531Z,5.87
2018-09-11T12:31:59.022Z,3.60
2018-09-11T12:34:27.494Z,3.47
2018-09-11T12:36:55.964Z,9.20
2018-09-11T12:39:24.427Z,8.30
2018-09-11T12:41:52.922Z,4.47
2018-09-11T12:44:21.519Z,5.23
2018-09-11T12:46:50.028Z,3.90
2018-09-11T12:49:18.440Z,21.13
2018-09-11T12:51:46.930Z,6.77
2018-09-11T12:54:15.376Z,3.40
2018-09-11T12:56:43.932Z,3.37
2018-09-11T12:59:12.401Z,5.47
2018-09-11T13:01:40.864Z,4.50
2018-09-11T13:04:09.330Z,27.47
2018-09-11T13:06:37.805Z,5.17
2018-09-11T13:09:06.504Z,6.83
2018-09-11T13:11:34.980Z,12.13
2018-09-11T13:14:03.450Z,2.73
2018-09-11T13:16:31.948Z,12.00
2018-09-11T13:19:01.353Z,7.00
2018-09-11T13:21:29.869Z,13.80
2018-09-11T13:23:58.333Z,11.23
2018-09-11T13:26:26.829Z,10.60
2018-09-11T13:28:55.295Z,5.13
2018-09-11T13:31:23.751Z,6.60
2018-09-11T13:33:52.265Z,10.83
2018-09-11T13:36:20.725Z,5.30
2018-09-11T13:38:49.212Z,12.30
2018-09-11T13:41:17.719Z,5.77
2018-09-11T13:43:46.196Z,6.40
2018-09-11T13:46:14.728Z,6.33
2018-09-11T13:48:43.167Z,7.77
2018-09-11T13:51:11.652Z,10.27
2018-09-11T13:53:40.117Z,4.03
2018-09-11T13:56:08.619Z,8.33
2018-09-11T13:58:37.029Z,4.13
2018-09-11T14:01:05.885Z,4.87
2018-09-11T14:03:34.337Z,9.07
2018-09-11T14:06:02.822Z,7.30
2018-09-11T14:08:31.311Z,6.47
2018-09-11T14:10:59.769Z,5.13
2018-09-11T14:13:28.251Z,7.97
2018-09-11T14:15:56.738Z,5.30
2018-09-11T14:18:25.168Z,4.10
2018-09-11T14:20:53.619Z,7.03
2018-09-11T14:23:22.117Z,11.17
2018-09-11T14:25:50.565Z,6.67
2018-09-11T14:28:19.078Z,6.70
2018-09-11T14:30:47.530Z,5.27
2018-09-11T14:33:16.012Z,6.57
2018-09-11T14:35:44.689Z,7.83
2018-09-11T14:38:13.181Z,58.80
2018-09-11T14:40:41.743Z,82.80
2018-09-11T14:43:10.288Z,130.47
2018-09-11T14:45:38.785Z,58.48
2018-09-11T14:48:07.265Z,42.83
2018-09-11T14:50:35.815Z,19.27
2018-09-11T14:53:04.304Z,24.23
2018-09-11T14:55:32.765Z,11.47
2018-09-11T14:58:01.319Z,15.10
2018-09-11T15:00:29.883Z,8.55
2018-09-11T15:02:58.377Z,122.35
2018-09-11T15:05:26.861Z,146.40
2018-09-11T15:07:55.402Z,62.27
2018-09-11T15:10:23.841Z,75.35
2018-09-11T15:12:52.358Z,19.45
2018-09-11T15:15:20.821Z,35.50
2018-09-11T15:17:49.305Z,20.52
2018-09-11T15:20:17.808Z,12.37
2018-09-11T15:22:46.306Z,10.60
2018-09-11T15:25:14.741Z,14.47
2018-09-11T15:27:43.272Z,7.03
2018-09-11T15:30:11.757Z,9.38
2018-09-11T15:32:40.247Z,6.75
2018-09-11T15:35:08.718Z,7.40
2018-09-11T15:37:37.200Z,6.83
2018-09-11T15:40:05.701Z,9.90
2018-09-11T15:42:34.213Z,5.07
2018-09-11T15:45:02.761Z,7.47
2018-09-11T15:47:31.235Z,7.20
2018-09-11T15:49:59.748Z,10.70
2018-09-11T15:52:28.272Z,9.77
2018-09-11T15:54:56.920Z,6.47
2018-09-11T15:57:25.421Z,4.00
2018-09-11T15:59:53.908Z,10.50
2018-09-11T16:02:22.438Z,31.43
2018-09-11T16:04:50.948Z,120.97
2018-09-11T16:07:19.434Z,97.17
2018-09-11T16:09:47.977Z,77.77
2018-09-11T16:12:16.563Z,65.13
2018-09-11T16:14:45.112Z,15.03
2018-09-11T16:17:13.789Z,8.40
2018-09-11T16:19:42.231Z,10.93
2018-09-11T16:22:10.789Z,13.53
2018-09-11T16:24:39.345Z,21.43
2018-09-11T16:27:07.835Z,17.57
2018-09-11T16:29:36.379Z,12.97
2018-09-11T16:32:04.854Z,6.67
2018-09-11T16:34:33.334Z,12.87
2018-09-11T16:37:01.790Z,8.67
2018-09-11T16:39:30.248Z,14.67
2018-09-11T16:41:58.780Z,20.73
2018-09-11T16:44:27.239Z,9.73
2018-09-11T16:46:55.703Z,11.37
2018-09-11T16:49:24.221Z,10.90
2018-09-11T16:51:52.699Z,16.67
2018-09-11T16:54:21.187Z,8.50
2018-09-11T16:56:49.651Z,8.43
2018-09-11T16:59:18.168Z,10.20
2018-09-11T17:01:46.612Z,10.83
2018-09-11T17:04:15.092Z,10.73
2018-09-11T17:06:43.614Z,9.83
2018-09-11T17:09:12.092Z,9.37
2018-09-11T17:11:40.584Z,9.10
2018-09-11T17:14:09.129Z,8.93
2018-09-11T17:16:37.545Z,7.57
2018-09-11T17:19:06.023Z,13.97
2018-09-11T17:21:34.561Z,7.77
2018-09-11T17:24:03.169Z,8.63
2018-09-11T17:26:31.589Z,8.43
2018-09-11T17:29:00.138Z,12.90
2018-09-11T17:31:28.752Z,6.33
2018-09-11T17:33:57.244Z,8.80
2018-09-11T17:36:25.721Z,11.60
2018-09-11T17:38:54.229Z,8.97
2018-09-11T17:41:22.733Z,10.33
2018-09-11T17:43:51.224Z,8.67
2018-09-11T17:46:19.705Z,8.80
2018-09-11T17:48:48.257Z,15.33
2018-09-11T17:51:16.685Z,12.60
2018-09-11T17:53:45.148Z,9.00
2018-09-11T17:56:13.622Z,8.43
2018-09-11T17:58:42.089Z,9.30
2018-09-11T18:01:10.585Z,10.07
2018-09-11T18:03:39.027Z,7.77
2018-09-11T18:06:07.505Z,6.13
2018-09-11T18:08:36.009Z,7.93
2018-09-11T18:11:05.155Z,6.97
2018-09-11T18:13:33.605Z,10.33
2018-09-11T18:16:02.080Z,13.03
2018-09-11T18:18:30.551Z,9.80
2018-09-11T18:20:59.036Z,7.10
2018-09-11T18:23:27.603Z,10.60
2018-09-11T18:25:56.192Z,11.00
2018-09-11T18:28:24.664Z,6.80
2018-09-11T18:30:53.200Z,9.63
2018-09-11T18:33:21.715Z,8.73
2018-09-11T18:35:50.317Z,9.23
2018-09-11T18:38:18.811Z,10.53
2018-09-11T18:40:47.331Z,16.20
2018-09-11T18:43:15.916Z,12.03
2018-09-11T18:45:44.438Z,15.83
2018-09-11T18:48:12.889Z,12.00
2018-09-11T18:50:41.367Z,12.97
2018-09-11T18:53:09.839Z,15.60
2018-09-11T18:55:38.355Z,11.67
2018-09-11T18:58:06.857Z,16.70
2018-09-11T19:00:35.337Z,16.23
2018-09-11T19:03:03.832Z,17.33
2018-09-11T19:05:32.322Z,20.93
2018-09-11T19:08:01.361Z,19.57
2018-09-11T19:10:30.426Z,13.37
2018-09-11T19:12:58.950Z,12.43
2018-09-11T19:15:27.571Z,14.10
2018-09-11T19:17:56.063Z,12.07
2018-09-11T19:20:24.685Z,11.30
2018-09-11T19:22:53.177Z,9.90
2018-09-11T19:25:21.671Z,11.73
2018-09-11T19:27:50.153Z,11.97
2018-09-11T19:30:18.621Z,11.57
2018-09-11T19:32:47.092Z,12.37
2018-09-11T19:35:15.579Z,19.33
2018-09-11T19:37:44.069Z,15.33
2018-09-11T19:40:12.573Z,12.47
2018-09-11T19:42:41.095Z,20.27
2018-09-11T19:45:09.573Z,19.03
2018-09-11T19:47:38.060Z,12.97
2018-09-11T19:50:06.558Z,11.17
2018-09-11T19:52:35.022Z,10.60
2018-09-11T19:55:03.520Z,9.47
2018-09-11T19:57:32.045Z,12.70
2018-09-11T20:00:00.502Z,12.63
2018-09-11T20:02:29.004Z,7.93
2018-09-11T20:04:57.499Z,12.57
2018-09-11T20:07:26.005Z,16.60
2018-09-11T20:09:54.438Z,26.80
2018-09-11T20:12:22.931Z,16.30
2018-09-11T20:14:51.415Z,10.40
2018-09-11T20:17:19.917Z,11.63
2018-09-11T20:19:48.439Z,12.40
2018-09-11T20:22:16.927Z,8.47
2018-09-11T20:24:45.388Z,11.23
2018-09-11T20:27:13.946Z,12.70
2018-09-11T20:29:42.451Z,11.93
2018-09-11T20:32:11.068Z,17.07
2018-09-11T20:34:39.606Z,16.57
2018-09-11T20:37:08.156Z,12.30
2018-09-11T20:39:36.726Z,11.00
2018-09-11T20:42:05.227Z,8.67
2018-09-11T20:44:33.732Z,11.20
2018-09-11T20:47:02.189Z,9.67
2018-09-11T20:49:30.646Z,9.20
2018-09-11T20:51:59.204Z,8.93
2018-09-11T20:54:27.711Z,11.77
2018-09-11T20:56:56.291Z,10.40
2018-09-11T20:59:24.747Z,10.43
2018-09-11T21:01:53.271Z,9.03
2018-09-11T21:04:21.825Z,13.97
2018-09-11T21:06:50.316Z,7.37
2018-09-11T21:09:18.808Z,8.57
2018-09-11T21:11:47.438Z,6.37
2018-09-11T21:14:16.146Z,8.40
2018-09-11T21:16:44.601Z,8.77
2018-09-11T21:19:13.098Z,8.97
2018-09-11T21:21:41.610Z,11.73
2018-09-11T21:24:10.069Z,7.90
2018-09-11T21:26:38.620Z,11.00
2018-09-11T21:29:07.092Z,10.87
2018-09-11T21:31:35.572Z,9.03
2018-09-11T21:34:04.040Z,10.80
2018-09-11T21:36:32.595Z,13.47
2018-09-11T21:39:01.602Z,14.73
2018-09-11T21:41:30.084Z,12.83
2018-09-11T21:43:58.589Z,13.73
2018-09-11T21:46:27.056Z,12.13
2018-09-11T21:48:55.625Z,20.37
2018-09-11T21:51:24.131Z,22.33
2018-09-11T21:53:52.772Z,46.40
2018-09-11T21:56:21.255Z,34.20
2018-09-11T21:58:51.824Z,16.20
2018-09-11T22:01:25.653Z,18.30
2018-09-11T22:03:54.202Z,11.90
2018-09-11T22:06:25.446Z,18.23
2018-09-11T22:09:05.981Z,12.57
2018-09-11T22:11:34.433Z,13.97
2018-09-11T22:14:03.003Z,17.43
2018-09-11T22:16:31.553Z,19.70
2018-09-11T22:19:00.066Z,19.87
2018-09-11T22:21:28.532Z,20.43
2018-09-11T22:23:57.110Z,15.53
2018-09-11T22:26:25.623Z,17.33
2018-09-11T22:28:54.091Z,15.67
2018-09-11T22:31:22.569Z,23.80
2018-09-11T22:33:51.063Z,37.37
2018-09-11T22:36:19.606Z,26.83
2018-09-11T22:38:48.504Z,14.70
2018-09-11T22:41:17.151Z,39.33
2018-09-11T22:43:45.677Z,42.83
2018-09-11T22:46:14.184Z,15.50
2018-09-11T22:48:42.673Z,14.33
2018-09-11T22:51:11.218Z,19.97
2018-09-11T22:53:39.713Z,21.07
2018-09-11T22:56:09.245Z,11.60
2018-09-11T22:58:37.736Z,17.13
2018-09-11T23:01:06.246Z,12.27
2018-09-11T23:03:34.720Z,11.47
2018-09-11T23:06:03.188Z,15.13
2018-09-11T23:08:31.673Z,14.30
2018-09-11T23:11:00.162Z,16.23
2018-09-11T23:13:28.645Z,13.63
2018-09-11T23:15:57.155Z,17.80
2018-09-11T23:18:25.642Z,17.60
2018-09-11T23:20:54.128Z,21.53
2018-09-11T23:23:22.630Z,11.47
2018-09-11T23:25:51.110Z,12.93
2018-09-11T23:28:19.760Z,16.53
2018-09-11T23:30:48.240Z,12.90
2018-09-11T23:33:16.723Z,9.83
2018-09-11T23:35:45.220Z,11.50
2018-09-11T23:38:13.740Z,15.43
2018-09-11T23:40:42.190Z,9.67
2018-09-11T23:43:10.745Z,12.63
2018-09-11T23:45:39.236Z,11.37
2018-09-11T23:48:07.688Z,12.53
2018-09-11T23:50:36.166Z,12.70
2018-09-11T23:53:04.768Z,8.53
2018-09-11T23:55:33.328Z,10.90
2018-09-11T23:58:01.817Z,11.17
